sensor_id;sensor_type;location;lat;lon;timestamp;temperature;humidity
13569;DHT22;6856;51.460;7.158;2023-08-30T00:00:07;20.70;56.80
13569;DHT22;6856;51.460;7.158;2023-08-30T00:02:45;20.60;56.90
13569;DHT22;6856;51.460;7.158;2023-08-30T00:05:20;20.60;56.80
13569;DHT22;6856;51.460;7.158;2023-08-30T00:07:55;20.60;56.80
13569;DHT22;6856;51.460;7.158;2023-08-30T00:10:30;20.50;56.90
13569;DHT22;6856;51.460;7.158;2023-08-30T00:13:04;20.50;56.90
13569;DHT22;6856;51.460;7.158;2023-08-30T00:15:39;20.50;57.00
13569;DHT22;6856;51.460;7.158;2023-08-30T00:18:16;20.50;56.90
13569;DHT22;6856;51.460;7.158;2023-08-30T00:20:50;20.40;56.80
13569;DHT22;6856;51.460;7.158;2023-08-30T00:23:25;20.40;57.00
13569;DHT22;6856;51.460;7.158;2023-08-30T00:26:00;20.40;56.90
13569;DHT22;6856;51.460;7.158;2023-08-30T00:28:35;20.40;57.00
13569;DHT22;6856;51.460;7.158;2023-08-30T00:31:09;20.30;56.90
13569;DHT22;6856;51.460;7.158;2023-08-30T00:33:45;20.30;56.90
13569;DHT22;6856;51.460;7.158;2023-08-30T00:36:19;20.30;56.80
13569;DHT22;6856;51.460;7.158;2023-08-30T00:38:54;20.30;57.00
13569;DHT22;6856;51.460;7.158;2023-08-30T00:41:29;20.20;57.10
13569;DHT22;6856;51.460;7.158;2023-08-30T00:44:03;20.20;57.00
13569;DHT22;6856;51.460;7.158;2023-08-30T00:46:39;20.20;57.00
13569;DHT22;6856;51.460;7.158;2023-08-30T00:49:14;20.10;57.10
13569;DHT22;6856;51.460;7.158;2023-08-30T00:51:48;20.10;57.00
13569;DHT22;6856;51.460;7.158;2023-08-30T00:54:23;20.10;57.10
13569;DHT22;6856;51.460;7.158;2023-08-30T00:57:00;20.10;57.20
13569;DHT22;6856;51.460;7.158;2023-08-30T00:59:35;20.00;57.00
13569;DHT22;6856;51.460;7.158;2023-08-30T01:02:09;20.00;57.20
13569;DHT22;6856;51.460;7.158;2023-08-30T01:04:45;20.00;57.00
13569;DHT22;6856;51.460;7.158;2023-08-30T01:07:20;20.00;57.20
13569;DHT22;6856;51.460;7.158;2023-08-30T01:09:54;20.00;57.30
13569;DHT22;6856;51.460;7.158;2023-08-30T01:12:33;19.90;57.30
13569;DHT22;6856;51.460;7.158;2023-08-30T01:15:12;19.90;57.40
13569;DHT22;6856;51.460;7.158;2023-08-30T01:17:49;19.90;57.40
13569;DHT22;6856;51.460;7.158;2023-08-30T01:20:27;19.80;57.40
13569;DHT22;6856;51.460;7.158;2023-08-30T01:23:06;19.80;57.50
13569;DHT22;6856;51.460;7.158;2023-08-30T01:25:48;19.80;57.40
13569;DHT22;6856;51.460;7.158;2023-08-30T01:28:30;19.80;58.10
13569;DHT22;6856;51.460;7.158;2023-08-30T01:31:07;19.70;57.50
13569;DHT22;6856;51.460;7.158;2023-08-30T01:33:43;19.70;57.30
13569;DHT22;6856;51.460;7.158;2023-08-30T01:36:20;19.70;57.40
13569;DHT22;6856;51.460;7.158;2023-08-30T01:38:56;19.70;57.50
13569;DHT22;6856;51.460;7.158;2023-08-30T01:41:35;19.70;57.50
13569;DHT22;6856;51.460;7.158;2023-08-30T01:44:14;19.60;57.50
13569;DHT22;6856;51.460;7.158;2023-08-30T01:46:49;19.60;57.50
13569;DHT22;6856;51.460;7.158;2023-08-30T01:49:23;19.60;57.40
13569;DHT22;6856;51.460;7.158;2023-08-30T01:51:59;19.60;57.50
13569;DHT22;6856;51.460;7.158;2023-08-30T01:54:34;19.60;57.50
13569;DHT22;6856;51.460;7.158;2023-08-30T01:57:11;19.50;57.40
13569;DHT22;6856;51.460;7.158;2023-08-30T01:59:47;19.50;57.30
13569;DHT22;6856;51.460;7.158;2023-08-30T02:02:21;19.50;57.30
13569;DHT22;6856;51.460;7.158;2023-08-30T02:04:55;19.40;57.30
13569;DHT22;6856;51.460;7.158;2023-08-30T02:07:32;19.40;57.30
13569;DHT22;6856;51.460;7.158;2023-08-30T02:10:11;19.40;57.60
13569;DHT22;6856;51.460;7.158;2023-08-30T02:12:53;19.40;57.60
13569;DHT22;6856;51.460;7.158;2023-08-30T02:15:34;19.30;57.60
13569;DHT22;6856;51.460;7.158;2023-08-30T02:18:12;19.30;57.70
13569;DHT22;6856;51.460;7.158;2023-08-30T02:20:46;19.30;57.70
13569;DHT22;6856;51.460;7.158;2023-08-30T02:23:23;19.30;57.70
13569;DHT22;6856;51.460;7.158;2023-08-30T02:25:57;19.20;57.80
13569;DHT22;6856;51.460;7.158;2023-08-30T02:28:31;19.20;57.80
13569;DHT22;6856;51.460;7.158;2023-08-30T02:31:07;19.20;57.80
13569;DHT22;6856;51.460;7.158;2023-08-30T02:33:40;19.20;57.50
13569;DHT22;6856;51.460;7.158;2023-08-30T02:36:15;19.10;57.60
13569;DHT22;6856;51.460;7.158;2023-08-30T02:38:49;19.10;57.80
13569;DHT22;6856;51.460;7.158;2023-08-30T02:41:23;19.10;57.70
13569;DHT22;6856;51.460;7.158;2023-08-30T02:43:58;19.10;57.80
13569;DHT22;6856;51.460;7.158;2023-08-30T02:46:35;19.10;57.70
13569;DHT22;6856;51.460;7.158;2023-08-30T02:49:10;19.00;58.00
13569;DHT22;6856;51.460;7.158;2023-08-30T02:51:46;19.00;58.00
13569;DHT22;6856;51.460;7.158;2023-08-30T02:54:20;19.00;58.00
13569;DHT22;6856;51.460;7.158;2023-08-30T02:56:55;19.00;58.00
13569;DHT22;6856;51.460;7.158;2023-08-30T02:59:29;18.90;58.00
13569;DHT22;6856;51.460;7.158;2023-08-30T03:02:05;18.90;58.00
13569;DHT22;6856;51.460;7.158;2023-08-30T03:04:39;18.90;58.10
13569;DHT22;6856;51.460;7.158;2023-08-30T03:07:13;18.90;57.90
13569;DHT22;6856;51.460;7.158;2023-08-30T03:09:52;18.90;58.00
13569;DHT22;6856;51.460;7.158;2023-08-30T03:12:29;18.90;58.10
13569;DHT22;6856;51.460;7.158;2023-08-30T03:15:04;18.80;58.00
13569;DHT22;6856;51.460;7.158;2023-08-30T03:17:40;18.80;58.10
13569;DHT22;6856;51.460;7.158;2023-08-30T03:20:15;18.80;58.00
13569;DHT22;6856;51.460;7.158;2023-08-30T03:22:50;18.80;58.10
13569;DHT22;6856;51.460;7.158;2023-08-30T03:25:28;18.70;58.20
13569;DHT22;6856;51.460;7.158;2023-08-30T03:28:03;18.70;58.20
13569;DHT22;6856;51.460;7.158;2023-08-30T03:30:42;18.70;58.20
13569;DHT22;6856;51.460;7.158;2023-08-30T03:33:17;18.70;58.20
13569;DHT22;6856;51.460;7.158;2023-08-30T03:35:51;18.60;58.20
13569;DHT22;6856;51.460;7.158;2023-08-30T03:38:26;18.60;58.20
13569;DHT22;6856;51.460;7.158;2023-08-30T03:41:00;18.60;58.30
13569;DHT22;6856;51.460;7.158;2023-08-30T03:43:34;18.60;58.30
13569;DHT22;6856;51.460;7.158;2023-08-30T03:46:08;18.60;58.30
13569;DHT22;6856;51.460;7.158;2023-08-30T03:48:45;18.50;58.30
13569;DHT22;6856;51.460;7.158;2023-08-30T03:51:20;18.50;58.30
13569;DHT22;6856;51.460;7.158;2023-08-30T03:53:54;18.50;58.30
13569;DHT22;6856;51.460;7.158;2023-08-30T03:56:29;18.50;58.10
13569;DHT22;6856;51.460;7.158;2023-08-30T03:59:04;18.50;58.20
13569;DHT22;6856;51.460;7.158;2023-08-30T04:01:39;18.50;58.80
13569;DHT22;6856;51.460;7.158;2023-08-30T04:04:14;18.40;58.20
13569;DHT22;6856;51.460;7.158;2023-08-30T04:06:49;18.40;58.20
13569;DHT22;6856;51.460;7.158;2023-08-30T04:09:23;18.40;58.40
13569;DHT22;6856;51.460;7.158;2023-08-30T04:11:58;18.30;58.30
13569;DHT22;6856;51.460;7.158;2023-08-30T04:14:33;18.30;58.20
13569;DHT22;6856;51.460;7.158;2023-08-30T04:17:07;18.30;58.20
13569;DHT22;6856;51.460;7.158;2023-08-30T04:19:42;18.30;58.20
13569;DHT22;6856;51.460;7.158;2023-08-30T04:22:16;18.30;58.10
13569;DHT22;6856;51.460;7.158;2023-08-30T04:24:51;18.30;58.20
13569;DHT22;6856;51.460;7.158;2023-08-30T04:27:26;18.20;58.30
13569;DHT22;6856;51.460;7.158;2023-08-30T04:30:00;18.20;58.20
13569;DHT22;6856;51.460;7.158;2023-08-30T04:32:34;18.20;58.30
13569;DHT22;6856;51.460;7.158;2023-08-30T04:35:11;18.10;58.00
13569;DHT22;6856;51.460;7.158;2023-08-30T04:37:45;18.10;58.30
13569;DHT22;6856;51.460;7.158;2023-08-30T04:40:20;18.10;58.00
13569;DHT22;6856;51.460;7.158;2023-08-30T04:42:58;18.10;58.20
13569;DHT22;6856;51.460;7.158;2023-08-30T04:45:34;18.10;58.50
13569;DHT22;6856;51.460;7.158;2023-08-30T04:48:08;18.10;58.50
13569;DHT22;6856;51.460;7.158;2023-08-30T04:50:45;18.00;58.40
13569;DHT22;6856;51.460;7.158;2023-08-30T04:53:20;18.00;58.60
13569;DHT22;6856;51.460;7.158;2023-08-30T04:55:55;18.00;58.80
13569;DHT22;6856;51.460;7.158;2023-08-30T04:58:29;18.00;59.10
13569;DHT22;6856;51.460;7.158;2023-08-30T05:01:03;18.00;59.50
13569;DHT22;6856;51.460;7.158;2023-08-30T05:03:39;17.90;59.10
13569;DHT22;6856;51.460;7.158;2023-08-30T05:06:15;18.00;59.20
13569;DHT22;6856;51.460;7.158;2023-08-30T05:08:49;17.90;59.70
13569;DHT22;6856;51.460;7.158;2023-08-30T05:11:23;17.90;59.40
13569;DHT22;6856;51.460;7.158;2023-08-30T05:13:57;17.90;59.90
13569;DHT22;6856;51.460;7.158;2023-08-30T05:16:32;17.90;59.80
13569;DHT22;6856;51.460;7.158;2023-08-30T05:19:06;17.90;60.00
13569;DHT22;6856;51.460;7.158;2023-08-30T05:21:46;17.80;59.90
13569;DHT22;6856;51.460;7.158;2023-08-30T05:24:23;17.80;60.30
13569;DHT22;6856;51.460;7.158;2023-08-30T05:26:58;17.80;60.30
13569;DHT22;6856;51.460;7.158;2023-08-30T05:29:33;17.80;60.50
13569;DHT22;6856;51.460;7.158;2023-08-30T05:32:07;17.70;60.60
13569;DHT22;6856;51.460;7.158;2023-08-30T05:34:41;17.80;60.50
13569;DHT22;6856;51.460;7.158;2023-08-30T05:37:16;17.70;60.70
13569;DHT22;6856;51.460;7.158;2023-08-30T05:39:53;17.70;60.80
13569;DHT22;6856;51.460;7.158;2023-08-30T05:42:27;17.70;61.00
13569;DHT22;6856;51.460;7.158;2023-08-30T05:45:01;17.70;61.00
13569;DHT22;6856;51.460;7.158;2023-08-30T05:47:35;17.70;61.00
13569;DHT22;6856;51.460;7.158;2023-08-30T05:50:11;17.70;61.10
13569;DHT22;6856;51.460;7.158;2023-08-30T05:52:46;17.70;61.40
13569;DHT22;6856;51.460;7.158;2023-08-30T05:55:21;17.70;60.90
13569;DHT22;6856;51.460;7.158;2023-08-30T05:57:55;17.70;61.40
13569;DHT22;6856;51.460;7.158;2023-08-30T06:00:30;17.70;61.30
13569;DHT22;6856;51.460;7.158;2023-08-30T06:03:04;17.70;61.50
13569;DHT22;6856;51.460;7.158;2023-08-30T06:05:38;17.70;61.90
13569;DHT22;6856;51.460;7.158;2023-08-30T06:08:14;17.70;61.30
13569;DHT22;6856;51.460;7.158;2023-08-30T06:10:50;17.70;61.60
13569;DHT22;6856;51.460;7.158;2023-08-30T06:13:23;17.70;61.60
13569;DHT22;6856;51.460;7.158;2023-08-30T06:15:57;17.70;60.80
13569;DHT22;6856;51.460;7.158;2023-08-30T06:18:32;17.70;61.40
13569;DHT22;6856;51.460;7.158;2023-08-30T06:21:07;17.80;61.60
13569;DHT22;6856;51.460;7.158;2023-08-30T06:23:44;17.80;61.80
13569;DHT22;6856;51.460;7.158;2023-08-30T06:26:19;17.80;62.00
13569;DHT22;6856;51.460;7.158;2023-08-30T06:28:55;17.80;61.50
13569;DHT22;6856;51.460;7.158;2023-08-30T06:31:36;17.80;61.50
13569;DHT22;6856;51.460;7.158;2023-08-30T06:34:12;17.90;62.20
13569;DHT22;6856;51.460;7.158;2023-08-30T06:36:46;17.90;61.90
13569;DHT22;6856;51.460;7.158;2023-08-30T06:39:24;17.90;61.90
13569;DHT22;6856;51.460;7.158;2023-08-30T06:41:58;17.90;62.40
13569;DHT22;6856;51.460;7.158;2023-08-30T06:44:33;17.90;62.30
13569;DHT22;6856;51.460;7.158;2023-08-30T06:47:07;17.90;62.70
13569;DHT22;6856;51.460;7.158;2023-08-30T06:49:42;18.00;63.10
13569;DHT22;6856;51.460;7.158;2023-08-30T06:52:16;18.00;63.00
13569;DHT22;6856;51.460;7.158;2023-08-30T06:54:52;18.00;63.00
13569;DHT22;6856;51.460;7.158;2023-08-30T06:57:27;18.00;62.50
13569;DHT22;6856;51.460;7.158;2023-08-30T07:00:02;18.10;63.40
13569;DHT22;6856;51.460;7.158;2023-08-30T07:02:41;18.20;63.90
13569;DHT22;6856;51.460;7.158;2023-08-30T07:05:17;18.20;63.60
13569;DHT22;6856;51.460;7.158;2023-08-30T07:07:54;18.30;63.40
13569;DHT22;6856;51.460;7.158;2023-08-30T07:10:31;18.30;63.90
13569;DHT22;6856;51.460;7.158;2023-08-30T07:13:10;18.40;63.30
13569;DHT22;6856;51.460;7.158;2023-08-30T07:15:52;18.40;63.60
13569;DHT22;6856;51.460;7.158;2023-08-30T07:18:33;18.50;63.40
13569;DHT22;6856;51.460;7.158;2023-08-30T07:21:07;18.60;63.50
13569;DHT22;6856;51.460;7.158;2023-08-30T07:23:41;18.70;62.80
13569;DHT22;6856;51.460;7.158;2023-08-30T07:26:16;18.70;63.10
13569;DHT22;6856;51.460;7.158;2023-08-30T07:28:50;18.80;62.40
13569;DHT22;6856;51.460;7.158;2023-08-30T07:31:24;18.90;63.00
13569;DHT22;6856;51.460;7.158;2023-08-30T07:33:59;18.90;62.80
13569;DHT22;6856;51.460;7.158;2023-08-30T07:36:33;19.00;62.50
13569;DHT22;6856;51.460;7.158;2023-08-30T07:39:19;19.10;62.60
13569;DHT22;6856;51.460;7.158;2023-08-30T07:41:58;19.10;62.20
13569;DHT22;6856;51.460;7.158;2023-08-30T07:44:33;19.20;61.90
13569;DHT22;6856;51.460;7.158;2023-08-30T07:47:07;19.30;61.90
13569;DHT22;6856;51.460;7.158;2023-08-30T07:49:42;19.40;61.30
13569;DHT22;6856;51.460;7.158;2023-08-30T07:52:16;19.40;61.60
13569;DHT22;6856;51.460;7.158;2023-08-30T07:55:10;19.50;61.20
13569;DHT22;6856;51.460;7.158;2023-08-30T07:57:46;19.60;61.00
13569;DHT22;6856;51.460;7.158;2023-08-30T08:00:21;19.70;60.40
13569;DHT22;6856;51.460;7.158;2023-08-30T08:02:55;19.50;60.20
13569;DHT22;6856;51.460;7.158;2023-08-30T08:05:32;19.80;60.10
13569;DHT22;6856;51.460;7.158;2023-08-30T08:08:06;19.90;60.60
13569;DHT22;6856;51.460;7.158;2023-08-30T08:10:42;19.90;60.30
13569;DHT22;6856;51.460;7.158;2023-08-30T08:13:18;20.00;60.50
13569;DHT22;6856;51.460;7.158;2023-08-30T08:15:55;20.10;60.70
13569;DHT22;6856;51.460;7.158;2023-08-30T08:18:30;20.20;61.90
13569;DHT22;6856;51.460;7.158;2023-08-30T08:21:04;20.30;60.10
13569;DHT22;6856;51.460;7.158;2023-08-30T08:23:38;20.30;59.60
13569;DHT22;6856;51.460;7.158;2023-08-30T08:26:15;20.50;59.70
13569;DHT22;6856;51.460;7.158;2023-08-30T08:28:51;20.60;59.10
13569;DHT22;6856;51.460;7.158;2023-08-30T08:31:25;20.60;59.10
13569;DHT22;6856;51.460;7.158;2023-08-30T08:34:07;20.70;58.60
13569;DHT22;6856;51.460;7.158;2023-08-30T08:36:44;20.80;58.70
13569;DHT22;6856;51.460;7.158;2023-08-30T08:39:19;20.90;58.30
13569;DHT22;6856;51.460;7.158;2023-08-30T08:41:55;21.00;58.20
13569;DHT22;6856;51.460;7.158;2023-08-30T08:44:32;21.10;57.70
13569;DHT22;6856;51.460;7.158;2023-08-30T08:47:08;21.20;57.50
13569;DHT22;6856;51.460;7.158;2023-08-30T08:49:43;21.20;57.10
13569;DHT22;6856;51.460;7.158;2023-08-30T08:52:17;21.30;57.10
13569;DHT22;6856;51.460;7.158;2023-08-30T08:55:04;21.30;57.00
13569;DHT22;6856;51.460;7.158;2023-08-30T08:57:39;21.40;56.70
13569;DHT22;6856;51.460;7.158;2023-08-30T09:00:16;21.40;56.50
13569;DHT22;6856;51.460;7.158;2023-08-30T09:02:50;21.40;56.60
13569;DHT22;6856;51.460;7.158;2023-08-30T09:05:26;21.50;56.10
13569;DHT22;6856;51.460;7.158;2023-08-30T09:08:02;21.50;56.10
13569;DHT22;6856;51.460;7.158;2023-08-30T09:10:39;21.50;56.00
13569;DHT22;6856;51.460;7.158;2023-08-30T09:13:16;21.50;55.90
13569;DHT22;6856;51.460;7.158;2023-08-30T09:15:59;21.50;55.90
13569;DHT22;6856;51.460;7.158;2023-08-30T09:18:36;21.50;55.80
13569;DHT22;6856;51.460;7.158;2023-08-30T09:21:10;21.50;55.80
13569;DHT22;6856;51.460;7.158;2023-08-30T09:23:57;21.50;56.00
13569;DHT22;6856;51.460;7.158;2023-08-30T09:26:37;21.50;55.80
13569;DHT22;6856;51.460;7.158;2023-08-30T09:29:20;21.50;54.60
13569;DHT22;6856;51.460;7.158;2023-08-30T09:31:57;21.50;55.50
13569;DHT22;6856;51.460;7.158;2023-08-30T09:34:32;21.60;55.50
13569;DHT22;6856;51.460;7.158;2023-08-30T09:37:06;21.60;55.70
13569;DHT22;6856;51.460;7.158;2023-08-30T09:39:48;21.60;55.30
13569;DHT22;6856;51.460;7.158;2023-08-30T09:42:23;21.60;55.80
13569;DHT22;6856;51.460;7.158;2023-08-30T09:45:04;21.70;55.10
13569;DHT22;6856;51.460;7.158;2023-08-30T09:48:00;21.70;55.40
13569;DHT22;6856;51.460;7.158;2023-08-30T09:50:36;21.70;55.90
13569;DHT22;6856;51.460;7.158;2023-08-30T09:53:15;21.80;55.80
13569;DHT22;6856;51.460;7.158;2023-08-30T09:55:53;21.80;55.80
13569;DHT22;6856;51.460;7.158;2023-08-30T09:58:30;21.80;55.50
13569;DHT22;6856;51.460;7.158;2023-08-30T10:01:05;21.80;55.50
13569;DHT22;6856;51.460;7.158;2023-08-30T10:03:43;21.80;55.40
13569;DHT22;6856;51.460;7.158;2023-08-30T10:06:17;21.70;55.30
13569;DHT22;6856;51.460;7.158;2023-08-30T10:08:55;21.70;55.60
13569;DHT22;6856;51.460;7.158;2023-08-30T10:11:35;21.60;55.80
13569;DHT22;6856;51.460;7.158;2023-08-30T10:14:11;21.50;56.50
13569;DHT22;6856;51.460;7.158;2023-08-30T10:16:51;21.50;56.70
13569;DHT22;6856;51.460;7.158;2023-08-30T10:19:37;21.20;55.80
13569;DHT22;6856;51.460;7.158;2023-08-30T10:22:13;21.30;57.00
13569;DHT22;6856;51.460;7.158;2023-08-30T10:24:54;21.20;57.60
13569;DHT22;6856;51.460;7.158;2023-08-30T10:27:46;21.20;57.80
13569;DHT22;6856;51.460;7.158;2023-08-30T10:30:22;21.10;58.00
13569;DHT22;6856;51.460;7.158;2023-08-30T10:32:58;21.00;58.00
13569;DHT22;6856;51.460;7.158;2023-08-30T10:35:34;21.00;58.30
13569;DHT22;6856;51.460;7.158;2023-08-30T10:38:08;20.90;58.20
13569;DHT22;6856;51.460;7.158;2023-08-30T10:40:45;20.90;58.20
13569;DHT22;6856;51.460;7.158;2023-08-30T10:43:33;20.90;59.00
13569;DHT22;6856;51.460;7.158;2023-08-30T10:46:08;20.80;59.30
13569;DHT22;6856;51.460;7.158;2023-08-30T10:48:43;20.80;59.00
13569;DHT22;6856;51.460;7.158;2023-08-30T10:51:34;20.80;59.40
13569;DHT22;6856;51.460;7.158;2023-08-30T10:54:13;20.70;59.70
13569;DHT22;6856;51.460;7.158;2023-08-30T10:56:55;20.70;59.90
13569;DHT22;6856;51.460;7.158;2023-08-30T10:59:31;20.70;60.10
13569;DHT22;6856;51.460;7.158;2023-08-30T11:02:07;20.70;59.30
13569;DHT22;6856;51.460;7.158;2023-08-30T11:04:41;20.60;60.10
13569;DHT22;6856;51.460;7.158;2023-08-30T11:07:18;20.60;60.20
13569;DHT22;6856;51.460;7.158;2023-08-30T11:09:53;20.50;60.40
13569;DHT22;6856;51.460;7.158;2023-08-30T11:12:27;20.50;61.20
13569;DHT22;6856;51.460;7.158;2023-08-30T11:15:02;20.50;60.50
13569;DHT22;6856;51.460;7.158;2023-08-30T11:17:37;20.40;60.80
13569;DHT22;6856;51.460;7.158;2023-08-30T11:20:13;20.40;61.50
13569;DHT22;6856;51.460;7.158;2023-08-30T11:22:50;20.40;61.20
13569;DHT22;6856;51.460;7.158;2023-08-30T11:25:26;20.40;61.00
13569;DHT22;6856;51.460;7.158;2023-08-30T11:28:03;20.30;61.30
13569;DHT22;6856;51.460;7.158;2023-08-30T11:30:40;20.30;61.50
13569;DHT22;6856;51.460;7.158;2023-08-30T11:33:18;20.30;62.40
13569;DHT22;6856;51.460;7.158;2023-08-30T11:35:52;20.30;61.40
13569;DHT22;6856;51.460;7.158;2023-08-30T11:38:28;20.30;61.60
13569;DHT22;6856;51.460;7.158;2023-08-30T11:41:04;20.20;60.70
13569;DHT22;6856;51.460;7.158;2023-08-30T11:43:41;20.20;61.90
13569;DHT22;6856;51.460;7.158;2023-08-30T11:46:16;20.20;61.70
13569;DHT22;6856;51.460;7.158;2023-08-30T11:48:51;20.20;61.90
13569;DHT22;6856;51.460;7.158;2023-08-30T11:51:26;20.20;61.60
13569;DHT22;6856;51.460;7.158;2023-08-30T11:54:02;20.10;61.90
13569;DHT22;6856;51.460;7.158;2023-08-30T11:56:36;20.10;62.10
13569;DHT22;6856;51.460;7.158;2023-08-30T11:59:18;20.10;62.30
13569;DHT22;6856;51.460;7.158;2023-08-30T12:01:53;20.10;63.10
13569;DHT22;6856;51.460;7.158;2023-08-30T12:04:30;20.10;62.60
13569;DHT22;6856;51.460;7.158;2023-08-30T12:07:07;20.00;62.50
13569;DHT22;6856;51.460;7.158;2023-08-30T12:09:43;20.00;62.60
13569;DHT22;6856;51.460;7.158;2023-08-30T12:12:18;20.00;62.00
13569;DHT22;6856;51.460;7.158;2023-08-30T12:14:56;19.70;62.20
13569;DHT22;6856;51.460;7.158;2023-08-30T12:17:31;19.90;62.60
13569;DHT22;6856;51.460;7.158;2023-08-30T12:20:15;19.90;62.70
13569;DHT22;6856;51.460;7.158;2023-08-30T12:22:53;19.80;63.00
13569;DHT22;6856;51.460;7.158;2023-08-30T12:25:31;19.80;62.60
13569;DHT22;6856;51.460;7.158;2023-08-30T12:28:05;19.80;63.00
13569;DHT22;6856;51.460;7.158;2023-08-30T12:30:40;19.70;63.30
13569;DHT22;6856;51.460;7.158;2023-08-30T12:33:16;19.70;63.40
13569;DHT22;6856;51.460;7.158;2023-08-30T12:35:57;19.70;63.40
13569;DHT22;6856;51.460;7.158;2023-08-30T12:38:34;19.70;64.50
13569;DHT22;6856;51.460;7.158;2023-08-30T12:41:09;19.70;63.90
13569;DHT22;6856;51.460;7.158;2023-08-30T12:43:44;19.60;63.70
13569;DHT22;6856;51.460;7.158;2023-08-30T12:46:18;19.70;64.00
13569;DHT22;6856;51.460;7.158;2023-08-30T12:48:54;19.60;63.60
13569;DHT22;6856;51.460;7.158;2023-08-30T12:51:30;19.60;64.40
13569;DHT22;6856;51.460;7.158;2023-08-30T12:54:05;19.60;64.50
13569;DHT22;6856;51.460;7.158;2023-08-30T12:56:42;19.60;64.90
13569;DHT22;6856;51.460;7.158;2023-08-30T12:59:17;19.70;65.10
13569;DHT22;6856;51.460;7.158;2023-08-30T13:01:55;19.70;65.80
13569;DHT22;6856;51.460;7.158;2023-08-30T13:04:29;19.70;64.90
13569;DHT22;6856;51.460;7.158;2023-08-30T13:07:06;19.80;65.10
13569;DHT22;6856;51.460;7.158;2023-08-30T13:09:40;19.80;66.00
13569;DHT22;6856;51.460;7.158;2023-08-30T13:12:15;19.80;65.00
13569;DHT22;6856;51.460;7.158;2023-08-30T13:14:49;19.90;64.80
13569;DHT22;6856;51.460;7.158;2023-08-30T13:17:24;19.90;64.80
13569;DHT22;6856;51.460;7.158;2023-08-30T13:19:58;19.90;64.60
13569;DHT22;6856;51.460;7.158;2023-08-30T13:22:33;19.90;64.50
13569;DHT22;6856;51.460;7.158;2023-08-30T13:25:08;19.90;64.80
13569;DHT22;6856;51.460;7.158;2023-08-30T13:27:43;19.90;64.70
13569;DHT22;6856;51.460;7.158;2023-08-30T13:30:17;19.90;63.90
13569;DHT22;6856;51.460;7.158;2023-08-30T13:32:52;19.90;63.70
13569;DHT22;6856;51.460;7.158;2023-08-30T13:35:29;19.90;64.40
13569;DHT22;6856;51.460;7.158;2023-08-30T13:38:03;19.80;64.00
13569;DHT22;6856;51.460;7.158;2023-08-30T13:40:38;19.80;64.20
13569;DHT22;6856;51.460;7.158;2023-08-30T13:43:13;19.70;63.70
13569;DHT22;6856;51.460;7.158;2023-08-30T13:45:47;19.70;63.90
13569;DHT22;6856;51.460;7.158;2023-08-30T13:48:30;19.70;64.50
13569;DHT22;6856;51.460;7.158;2023-08-30T13:51:06;19.70;64.50
13569;DHT22;6856;51.460;7.158;2023-08-30T13:53:40;19.70;64.70
13569;DHT22;6856;51.460;7.158;2023-08-30T13:56:13;19.60;64.40
13569;DHT22;6856;51.460;7.158;2023-08-30T13:58:49;19.60;64.50
13569;DHT22;6856;51.460;7.158;2023-08-30T14:01:23;19.60;64.50
13569;DHT22;6856;51.460;7.158;2023-08-30T14:03:57;19.60;64.70
13569;DHT22;6856;51.460;7.158;2023-08-30T14:06:31;19.60;64.70
13569;DHT22;6856;51.460;7.158;2023-08-30T14:09:06;19.60;64.90
13569;DHT22;6856;51.460;7.158;2023-08-30T14:11:40;19.60;65.00
13569;DHT22;6856;51.460;7.158;2023-08-30T14:14:16;19.60;65.10
13569;DHT22;6856;51.460;7.158;2023-08-30T14:16:50;19.60;65.20
13569;DHT22;6856;51.460;7.158;2023-08-30T14:19:24;19.60;65.10
13569;DHT22;6856;51.460;7.158;2023-08-30T14:21:58;19.60;65.50
13569;DHT22;6856;51.460;7.158;2023-08-30T14:24:33;19.60;65.50
13569;DHT22;6856;51.460;7.158;2023-08-30T14:27:19;19.70;65.50
13569;DHT22;6856;51.460;7.158;2023-08-30T14:29:54;19.70;65.60
13569;DHT22;6856;51.460;7.158;2023-08-30T14:32:29;19.70;65.60
13569;DHT22;6856;51.460;7.158;2023-08-30T14:35:04;19.70;65.50
13569;DHT22;6856;51.460;7.158;2023-08-30T14:37:39;19.70;65.60
13569;DHT22;6856;51.460;7.158;2023-08-30T14:40:16;19.70;65.50
13569;DHT22;6856;51.460;7.158;2023-08-30T14:42:50;19.70;64.80
13569;DHT22;6856;51.460;7.158;2023-08-30T14:45:25;19.80;65.30
13569;DHT22;6856;51.460;7.158;2023-08-30T14:47:59;19.70;65.30
13569;DHT22;6856;51.460;7.158;2023-08-30T14:50:35;19.70;65.40
13569;DHT22;6856;51.460;7.158;2023-08-30T14:53:09;19.70;65.20
13569;DHT22;6856;51.460;7.158;2023-08-30T14:55:44;19.70;65.10
13569;DHT22;6856;51.460;7.158;2023-08-30T14:58:19;19.70;64.90
13569;DHT22;6856;51.460;7.158;2023-08-30T15:00:55;19.70;64.90
13569;DHT22;6856;51.460;7.158;2023-08-30T15:03:30;19.60;64.70
13569;DHT22;6856;51.460;7.158;2023-08-30T15:06:05;19.60;64.60
13569;DHT22;6856;51.460;7.158;2023-08-30T15:08:39;19.60;64.80
13569;DHT22;6856;51.460;7.158;2023-08-30T15:11:15;19.60;64.60
13569;DHT22;6856;51.460;7.158;2023-08-30T15:13:51;19.50;64.80
13569;DHT22;6856;51.460;7.158;2023-08-30T15:16:27;19.50;64.60
13569;DHT22;6856;51.460;7.158;2023-08-30T15:19:00;19.50;64.70
13569;DHT22;6856;51.460;7.158;2023-08-30T15:21:36;19.50;64.90
13569;DHT22;6856;51.460;7.158;2023-08-30T15:24:10;19.50;64.90
13569;DHT22;6856;51.460;7.158;2023-08-30T15:26:49;19.50;64.90
13569;DHT22;6856;51.460;7.158;2023-08-30T15:29:23;19.50;64.60
13569;DHT22;6856;51.460;7.158;2023-08-30T15:32:00;19.40;64.10
13569;DHT22;6856;51.460;7.158;2023-08-30T15:34:34;19.50;64.70
13569;DHT22;6856;51.460;7.158;2023-08-30T15:37:08;19.40;64.50
13569;DHT22;6856;51.460;7.158;2023-08-30T15:39:47;19.40;64.40
13569;DHT22;6856;51.460;7.158;2023-08-30T15:42:36;19.40;65.00
13569;DHT22;6856;51.460;7.158;2023-08-30T15:45:10;19.30;64.90
13569;DHT22;6856;51.460;7.158;2023-08-30T15:47:46;19.40;66.10
13569;DHT22;6856;51.460;7.158;2023-08-30T15:50:20;19.40;65.50
13569;DHT22;6856;51.460;7.158;2023-08-30T15:52:55;19.40;65.60
13569;DHT22;6856;51.460;7.158;2023-08-30T15:55:29;19.40;65.60
13569;DHT22;6856;51.460;7.158;2023-08-30T15:58:04;19.50;65.70
13569;DHT22;6856;51.460;7.158;2023-08-30T16:00:38;19.40;65.90
13569;DHT22;6856;51.460;7.158;2023-08-30T16:03:16;19.50;66.30
13569;DHT22;6856;51.460;7.158;2023-08-30T16:05:50;19.60;66.50
13569;DHT22;6856;51.460;7.158;2023-08-30T16:08:25;19.60;66.70
13569;DHT22;6856;51.460;7.158;2023-08-30T16:11:00;19.70;66.60
13569;DHT22;6856;51.460;7.158;2023-08-30T16:13:34;19.70;66.40
13569;DHT22;6856;51.460;7.158;2023-08-30T16:16:09;19.80;66.30
13569;DHT22;6856;51.460;7.158;2023-08-30T16:18:44;19.80;65.60
13569;DHT22;6856;51.460;7.158;2023-08-30T16:21:20;19.90;65.50
13569;DHT22;6856;51.460;7.158;2023-08-30T16:23:56;19.90;65.40
13569;DHT22;6856;51.460;7.158;2023-08-30T16:26:34;19.90;65.20
13569;DHT22;6856;51.460;7.158;2023-08-30T16:29:09;19.80;65.10
13569;DHT22;6856;51.460;7.158;2023-08-30T16:31:43;19.80;65.00
13569;DHT22;6856;51.460;7.158;2023-08-30T16:34:20;19.80;65.00
13569;DHT22;6856;51.460;7.158;2023-08-30T16:36:54;19.80;65.50
13569;DHT22;6856;51.460;7.158;2023-08-30T16:39:29;19.80;65.50